createdAt,value
2022-11-16T00:02:03.425Z,6.00
2022-11-16T00:04:31.255Z,6.01
2022-11-16T00:06:58.897Z,5.97
2022-11-16T00:09:27.180Z,5.94
2022-11-16T00:11:58.378Z,5.85
2022-11-16T00:14:28.447Z,5.81
2022-11-16T00:16:56.620Z,5.79
2022-11-16T00:19:27.729Z,5.76
2022-11-16T00:21:58.835Z,5.67
2022-11-16T00:24:26.465Z,5.65
2022-11-16T00:26:56.035Z,5.68
2022-11-16T00:29:26.468Z,5.60
2022-11-16T00:31:54.772Z,5.64
2022-11-16T00:34:23.216Z,5.44
2022-11-16T00:36:52.603Z,5.33
2022-11-16T00:39:20.453Z,5.18
2022-11-16T00:41:48.651Z,5.01
2022-11-16T00:44:16.867Z,4.88
2022-11-16T00:46:44.563Z,4.74
2022-11-16T00:49:12.148Z,4.77
2022-11-16T00:51:42.174Z,4.88
2022-11-16T00:54:11.153Z,5.03
2022-11-16T00:56:39.159Z,5.15
2022-11-16T00:59:21.300Z,5.29
2022-11-16T01:01:49.077Z,5.40
2022-11-16T01:04:16.929Z,5.54
2022-11-16T01:06:44.694Z,5.61
2022-11-16T01:09:13.719Z,5.68
2022-11-16T01:11:41.297Z,5.73
2022-11-16T01:14:09.809Z,5.78
2022-11-16T01:16:39.079Z,5.84
2022-11-16T01:19:07.566Z,5.89
2022-11-16T01:21:35.947Z,5.92
2022-11-16T01:24:03.905Z,5.95
2022-11-16T01:26:32.970Z,5.88
2022-11-16T01:29:00.952Z,5.98
2022-11-16T01:31:28.819Z,6.02
2022-11-16T01:33:56.368Z,6.02
2022-11-16T01:36:24.205Z,6.03
2022-11-16T01:38:51.736Z,6.06
2022-11-16T01:41:21.610Z,6.08
2022-11-16T01:43:53.695Z,6.10
2022-11-16T01:46:22.019Z,6.03
2022-11-16T01:48:54.224Z,6.14
2022-11-16T01:51:22.522Z,6.14
2022-11-16T01:53:50.934Z,6.18
2022-11-16T01:56:18.851Z,6.17
2022-11-16T01:58:46.856Z,6.18
2022-11-16T02:01:15.985Z,6.18
2022-11-16T02:03:43.804Z,6.18
2022-11-16T02:06:30.659Z,6.18
2022-11-16T02:09:12.314Z,6.20
2022-11-16T02:11:54.718Z,6.20
2022-11-16T02:14:37.965Z,6.18
2022-11-16T02:17:16.608Z,6.23
2022-11-16T02:20:08.156Z,6.24
2022-11-16T02:22:53.499Z,6.27
2022-11-16T02:25:30.772Z,6.28
2022-11-16T02:28:22.524Z,6.25
2022-11-16T02:30:56.080Z,6.26
2022-11-16T02:33:30.642Z,6.25
2022-11-16T02:36:00.873Z,6.23
2022-11-16T02:38:32.431Z,6.24
2022-11-16T02:41:05.215Z,6.26
2022-11-16T02:43:38.625Z,6.23
2022-11-16T02:46:12.480Z,6.23
2022-11-16T02:48:46.808Z,6.18
2022-11-16T02:51:14.990Z,6.18
2022-11-16T02:53:57.894Z,6.17
2022-11-16T02:56:27.065Z,6.18
2022-11-16T02:58:57.782Z,6.18
2022-11-16T03:01:35.261Z,6.16
2022-11-16T03:04:08.384Z,6.13
2022-11-16T03:06:39.399Z,6.16
2022-11-16T03:09:11.613Z,6.12
2022-11-16T03:11:44.625Z,6.18
2022-11-16T03:14:23.042Z,6.22
2022-11-16T03:16:56.721Z,6.21
2022-11-16T03:19:29.541Z,6.16
2022-11-16T03:22:04.035Z,6.22
2022-11-16T03:24:32.481Z,6.17
2022-11-16T03:27:06.416Z,6.18
2022-11-16T03:29:40.547Z,6.22
2022-11-16T03:32:15.773Z,6.20
2022-11-16T03:34:54.689Z,6.19
2022-11-16T03:37:24.501Z,6.14
2022-11-16T03:39:53.355Z,6.13
2022-11-16T03:42:23.613Z,6.13
2022-11-16T03:44:53.708Z,6.14
2022-11-16T03:47:23.161Z,6.14
2022-11-16T03:49:50.827Z,6.15
2022-11-16T03:52:19.093Z,6.13
2022-11-16T03:54:46.706Z,6.12
2022-11-16T03:57:14.295Z,6.12
2022-11-16T03:59:43.906Z,6.12
2022-11-16T04:02:12.034Z,6.12
2022-11-16T04:04:42.981Z,6.10
2022-11-16T04:07:10.844Z,6.05
2022-11-16T04:09:39.914Z,6.09
2022-11-16T04:12:08.525Z,6.10
2022-11-16T04:14:36.239Z,6.07
2022-11-16T04:17:03.777Z,6.12
2022-11-16T04:19:31.414Z,6.12
2022-11-16T04:22:03.338Z,6.12
2022-11-16T04:24:36.793Z,6.13
2022-11-16T04:27:08.164Z,6.09
2022-11-16T04:29:36.374Z,6.08
2022-11-16T04:32:04.782Z,6.09
2022-11-16T04:34:32.980Z,6.04
2022-11-16T04:37:02.149Z,5.98
2022-11-16T04:39:29.759Z,5.95
2022-11-16T04:41:57.540Z,5.93
2022-11-16T04:44:29.867Z,5.96
2022-11-16T04:46:57.824Z,5.97
2022-11-16T04:49:25.348Z,5.98
2022-11-16T04:51:53.052Z,6.00
2022-11-16T04:54:22.414Z,5.99
2022-11-16T04:56:50.547Z,6.03
2022-11-16T04:59:18.122Z,6.06
2022-11-16T05:01:46.325Z,6.09
2022-11-16T05:04:14.033Z,6.12
2022-11-16T05:06:41.707Z,6.06
2022-11-16T05:09:09.353Z,6.15
2022-11-16T05:11:38.347Z,6.17
2022-11-16T05:14:11.304Z,6.18
2022-11-16T05:16:38.937Z,6.19
2022-11-16T05:19:07.023Z,6.20
2022-11-16T05:21:38.389Z,6.21
2022-11-16T05:24:06.448Z,6.23
2022-11-16T05:26:34.038Z,6.24
2022-11-16T05:29:03.508Z,6.26
2022-11-16T05:31:35.117Z,6.26
2022-11-16T05:34:06.928Z,6.25
2022-11-16T05:36:35.740Z,6.20
2022-11-16T05:39:04.522Z,6.16
2022-11-16T05:41:32.550Z,6.11
2022-11-16T05:44:00.125Z,6.07
2022-11-16T05:46:31.605Z,6.01
2022-11-16T05:48:59.767Z,5.95
2022-11-16T05:51:27.314Z,5.90
2022-11-16T05:53:56.781Z,5.89
2022-11-16T05:56:24.574Z,5.87
2022-11-16T05:58:52.236Z,5.87
2022-11-16T06:01:19.947Z,5.88
2022-11-16T06:03:49.125Z,5.94
2022-11-16T06:06:17.314Z,5.87
2022-11-16T06:08:44.860Z,5.82
2022-11-16T06:11:13.626Z,5.91
2022-11-16T06:13:42.235Z,5.99
2022-11-16T06:16:11.449Z,6.04
2022-11-16T06:18:40.122Z,6.13
2022-11-16T06:21:09.859Z,6.30
2022-11-16T06:23:38.012Z,6.53
2022-11-16T06:26:06.803Z,6.71
2022-11-16T06:28:35.372Z,6.83
2022-11-16T06:31:04.886Z,6.99
2022-11-16T06:33:34.056Z,7.13
2022-11-16T06:36:03.536Z,7.31
2022-11-16T06:38:33.045Z,7.45
2022-11-16T06:41:01.046Z,7.57
2022-11-16T06:43:28.855Z,7.73
2022-11-16T06:45:57.845Z,7.93
2022-11-16T06:48:25.994Z,8.14
2022-11-16T06:50:53.738Z,8.29
2022-11-16T06:53:27.488Z,8.41
2022-11-16T06:56:01.282Z,8.52
2022-11-16T06:58:29.535Z,8.54
2022-11-16T07:00:57.156Z,8.55
2022-11-16T07:03:25.037Z,8.55
2022-11-16T07:05:52.630Z,8.52
2022-11-16T07:08:20.174Z,8.60
2022-11-16T07:10:47.863Z,8.67
2022-11-16T07:13:17.229Z,8.77
2022-11-16T07:15:44.742Z,8.87
2022-11-16T07:18:12.743Z,8.94
2022-11-16T07:20:40.847Z,9.00
2022-11-16T07:23:13.811Z,8.98
2022-11-16T07:25:42.026Z,8.87
2022-11-16T07:28:10.001Z,8.97
2022-11-16T07:30:39.172Z,8.95
2022-11-16T07:33:07.032Z,8.98
2022-11-16T07:35:36.469Z,8.98
2022-11-16T07:38:04.259Z,9.23
2022-11-16T07:40:32.164Z,9.43
2022-11-16T07:42:59.911Z,9.62
2022-11-16T07:45:27.539Z,9.81
2022-11-16T07:47:56.917Z,9.94
2022-11-16T07:50:24.843Z,10.01
2022-11-16T07:52:54.614Z,10.02
2022-11-16T07:55:22.822Z,9.94
2022-11-16T07:57:53.470Z,10.00
2022-11-16T08:00:21.672Z,10.04
2022-11-16T08:02:49.676Z,10.22
2022-11-16T08:05:18.692Z,10.32
2022-11-16T08:07:47.482Z,10.47
2022-11-16T08:10:15.576Z,10.47
2022-11-16T08:12:43.141Z,10.64
2022-11-16T08:15:11.313Z,10.73
2022-11-16T08:17:40.578Z,10.86
2022-11-16T08:20:09.941Z,10.87
2022-11-16T08:22:39.356Z,10.99
2022-11-16T08:25:08.082Z,11.03
2022-11-16T08:27:36.098Z,11.03
2022-11-16T08:30:04.967Z,10.96
2022-11-16T08:32:33.462Z,10.90
2022-11-16T08:35:01.100Z,10.72
2022-11-16T08:37:29.039Z,10.69
2022-11-16T08:39:58.354Z,10.77
2022-11-16T08:42:26.052Z,10.89
2022-11-16T08:44:53.594Z,10.84
2022-11-16T08:47:21.272Z,11.02
2022-11-16T08:53:29.626Z,11.22
2022-11-16T08:56:04.062Z,11.24
2022-11-16T08:58:32.163Z,11.30
2022-11-16T09:01:07.952Z,11.20
2022-11-16T09:03:37.159Z,11.19
2022-11-16T09:06:05.885Z,11.17
2022-11-16T09:08:37.034Z,11.18
2022-11-16T09:11:08.478Z,11.07
2022-11-16T09:13:39.572Z,10.90
2022-11-16T09:16:07.808Z,10.99
2022-11-16T09:18:37.065Z,11.04
2022-11-16T09:21:05.218Z,10.98
2022-11-16T09:23:33.053Z,11.01
2022-11-16T09:26:02.296Z,10.93
2022-11-16T09:28:32.743Z,10.86
2022-11-16T09:31:02.033Z,10.68
2022-11-16T09:33:30.803Z,10.77
2022-11-16T09:36:01.597Z,10.70
2022-11-16T09:38:40.602Z,10.72
2022-11-16T09:41:37.458Z,10.65
2022-11-16T09:44:17.404Z,10.66
2022-11-16T09:46:49.273Z,10.65
2022-11-16T09:49:21.222Z,10.64
2022-11-16T09:51:55.896Z,10.66
2022-11-16T09:54:27.604Z,10.67
2022-11-16T09:57:00.586Z,10.64
2022-11-16T09:59:37.030Z,10.70
2022-11-16T10:02:18.981Z,10.75
2022-11-16T10:04:53.634Z,10.80
2022-11-16T10:07:29.191Z,10.86
2022-11-16T10:09:57.284Z,10.88
2022-11-16T10:12:30.664Z,10.73
2022-11-16T10:15:22.171Z,10.67
2022-11-16T10:17:58.630Z,10.68
2022-11-16T10:20:55.162Z,10.66
2022-11-16T10:23:36.928Z,10.68
2022-11-16T10:26:16.197Z,10.64
2022-11-16T10:29:07.532Z,10.75
2022-11-16T10:31:51.608Z,10.74
2022-11-16T10:34:24.751Z,10.68
2022-11-16T10:36:56.004Z,10.76
2022-11-16T10:39:25.756Z,10.73
2022-11-16T10:41:53.449Z,10.66
2022-11-16T10:44:32.106Z,10.60
2022-11-16T10:47:04.467Z,10.48
2022-11-16T10:49:40.222Z,10.36
2022-11-16T10:52:07.849Z,10.37
2022-11-16T10:54:38.900Z,10.33
2022-11-16T10:57:10.706Z,10.31
2022-11-16T10:59:42.092Z,10.20
2022-11-16T11:02:31.343Z,10.21
2022-11-16T11:05:14.284Z,10.23
2022-11-16T11:07:46.900Z,10.25
2022-11-16T11:10:29.717Z,10.26
2022-11-16T11:13:26.123Z,10.14
2022-11-16T11:16:14.425Z,10.02
2022-11-16T11:18:45.350Z,9.95
2022-11-16T11:21:17.625Z,9.86
2022-11-16T11:23:47.822Z,9.77
2022-11-16T11:26:35.906Z,9.67
2022-11-16T11:29:20.697Z,9.61
2022-11-16T11:31:51.264Z,9.58
2022-11-16T11:34:23.791Z,9.54
2022-11-16T11:36:55.219Z,9.44
2022-11-16T11:39:34.803Z,9.16
2022-11-16T11:42:06.197Z,9.11
2022-11-16T11:44:38.779Z,9.01
2022-11-16T11:50:24.902Z,9.08
2022-11-16T11:53:02.799Z,9.14
2022-11-16T11:55:31.298Z,9.11
2022-11-16T11:58:00.340Z,9.18
2022-11-16T12:00:38.132Z,9.12
2022-11-16T12:03:44.780Z,8.97
2022-11-16T12:06:22.260Z,8.87
2022-11-16T12:09:09.938Z,8.69
2022-11-16T12:11:51.217Z,8.40
2022-11-16T12:14:34.103Z,8.34
2022-11-16T12:17:11.261Z,8.28
2022-11-16T12:20:02.077Z,8.20
2022-11-16T12:22:54.074Z,8.04
2022-11-16T12:25:30.859Z,8.01
2022-11-16T12:28:13.950Z,8.03
2022-11-16T12:30:55.099Z,7.97
2022-11-16T12:33:29.255Z,7.84
2022-11-16T12:36:02.093Z,7.90
2022-11-16T12:38:40.891Z,7.88
2022-11-16T12:41:31.777Z,7.82
2022-11-16T12:44:01.108Z,7.92
2022-11-16T12:46:40.891Z,7.88
2022-11-16T12:49:41.289Z,7.82
2022-11-16T12:52:24.043Z,7.81
2022-11-16T12:55:26.710Z,7.81
2022-11-16T12:58:14.467Z,7.79
2022-11-16T13:00:56.988Z,7.81
2022-11-16T13:03:33.543Z,7.75
2022-11-16T13:06:06.195Z,7.71
2022-11-16T13:08:46.605Z,7.68
2022-11-16T13:11:20.986Z,7.66
2022-11-16T13:13:58.009Z,7.60
2022-11-16T13:16:27.486Z,7.49
2022-11-16T13:18:55.895Z,7.43
2022-11-16T13:21:50.445Z,7.35
2022-11-16T13:24:29.673Z,7.34
2022-11-16T13:27:12.472Z,7.26
2022-11-16T13:29:45.927Z,7.23
2022-11-16T13:32:19.960Z,7.17
2022-11-16T13:34:50.040Z,7.19
2022-11-16T13:37:46.538Z,7.16
2022-11-16T13:40:28.662Z,7.11
2022-11-16T13:43:05.948Z,7.11
2022-11-16T13:45:40.143Z,7.07
2022-11-16T13:48:18.034Z,7.05
2022-11-16T13:50:51.979Z,7.00
2022-11-16T13:56:20.907Z,6.96
2022-11-16T13:58:53.400Z,6.90
2022-11-16T14:01:21.468Z,6.86
2022-11-16T14:03:51.288Z,6.84
2022-11-16T14:06:59.540Z,6.82
2022-11-16T14:09:45.064Z,6.78
2022-11-16T14:12:49.749Z,6.74
2022-11-16T14:15:20.175Z,6.66
2022-11-16T14:17:53.283Z,6.66
2022-11-16T14:20:43.020Z,6.67
2022-11-16T14:23:30.868Z,6.68
2022-11-16T14:26:12.216Z,6.63
2022-11-16T14:28:48.576Z,6.62
2022-11-16T14:31:23.818Z,6.59
2022-11-16T14:33:54.323Z,6.58
2022-11-16T14:36:37.731Z,6.56
2022-11-16T14:39:16.984Z,6.54
2022-11-16T14:41:46.564Z,6.52
2022-11-16T14:44:18.935Z,6.49
2022-11-16T14:46:48.596Z,6.46
2022-11-16T14:49:18.036Z,6.44
2022-11-16T14:51:49.866Z,6.41
2022-11-16T14:54:21.593Z,6.41
2022-11-16T14:56:57.123Z,6.36
2022-11-16T14:59:25.559Z,6.37
2022-11-16T15:01:54.705Z,6.35
2022-11-16T15:04:25.598Z,6.32
2022-11-16T15:06:57.534Z,6.34
2022-11-16T15:09:28.983Z,6.34
2022-11-16T15:12:00.904Z,6.32
2022-11-16T15:14:32.924Z,6.36
2022-11-16T15:17:01.978Z,6.33
2022-11-16T15:19:30.466Z,6.33
2022-11-16T15:21:59.863Z,6.34
2022-11-16T15:24:31.704Z,6.20
2022-11-16T15:27:10.273Z,6.33
2022-11-16T15:29:39.051Z,6.36
2022-11-16T15:32:16.089Z,6.33
2022-11-16T15:34:47.865Z,6.29
2022-11-16T15:37:26.041Z,6.34
2022-11-16T15:39:54.065Z,6.26
2022-11-16T15:42:23.843Z,6.26
2022-11-16T15:44:52.710Z,6.21
2022-11-16T15:47:23.152Z,6.22
2022-11-16T15:49:51.272Z,6.18
2022-11-16T15:52:44.754Z,6.18
2022-11-16T15:55:23.506Z,6.13
2022-11-16T15:57:59.993Z,6.16
2022-11-16T16:00:29.020Z,6.16
2022-11-16T16:03:03.921Z,6.18
2022-11-16T16:05:36.415Z,6.09
2022-11-16T16:08:05.594Z,6.11
2022-11-16T16:10:33.328Z,6.09
2022-11-16T16:13:02.021Z,6.00
2022-11-16T16:15:31.662Z,6.08
2022-11-16T16:18:01.973Z,6.10
2022-11-16T16:20:32.243Z,6.06
2022-11-16T16:23:07.877Z,6.08
2022-11-16T16:25:36.855Z,6.03
2022-11-16T16:28:04.988Z,6.00
2022-11-16T16:30:33.512Z,5.99
2022-11-16T16:33:02.668Z,6.04
2022-11-16T16:35:30.352Z,6.01
2022-11-16T16:37:59.542Z,6.02
2022-11-16T16:40:27.876Z,6.03
2022-11-16T16:42:55.759Z,6.03
2022-11-16T16:45:36.231Z,6.05
2022-11-16T16:48:06.064Z,6.05
2022-11-16T16:50:33.934Z,6.03
2022-11-16T16:53:01.857Z,6.06
2022-11-16T16:55:32.838Z,6.03
2022-11-16T16:58:03.978Z,6.04
2022-11-16T17:00:32.193Z,6.02
2022-11-16T17:03:21.037Z,6.02
2022-11-16T17:05:49.679Z,6.00
2022-11-16T17:08:19.143Z,6.00
2022-11-16T17:10:50.351Z,5.99
2022-11-16T17:13:17.897Z,5.98
2022-11-16T17:15:46.867Z,5.99
2022-11-16T17:18:18.488Z,5.88
2022-11-16T17:20:47.783Z,5.88
2022-11-16T17:23:15.486Z,5.85
2022-11-16T17:25:45.345Z,5.84
2022-11-16T17:28:13.380Z,5.80
2022-11-16T17:30:40.982Z,5.78
2022-11-16T17:33:08.662Z,5.73
2022-11-16T17:35:36.524Z,5.69
2022-11-16T17:38:05.797Z,5.65
2022-11-16T17:40:33.507Z,5.62
2022-11-16T17:43:01.391Z,5.61
2022-11-16T17:45:29.075Z,5.57
2022-11-16T17:47:56.912Z,5.58
2022-11-16T17:50:24.691Z,5.55
2022-11-16T17:52:52.434Z,5.52
2022-11-16T17:55:21.576Z,5.52
2022-11-16T17:57:49.104Z,5.49
2022-11-16T18:00:18.078Z,5.45
2022-11-16T18:02:45.824Z,5.49
2022-11-16T18:05:13.812Z,5.47
2022-11-16T18:07:41.856Z,5.46
2022-11-16T18:10:12.675Z,5.47
2022-11-16T18:12:44.310Z,5.48
2022-11-16T18:15:28.015Z,5.43
2022-11-16T18:17:56.901Z,5.43
2022-11-16T18:20:24.665Z,5.41
2022-11-16T18:22:52.378Z,5.42
2022-11-16T18:25:20.101Z,5.41
2022-11-16T18:27:52.583Z,5.41
2022-11-16T18:30:20.451Z,5.38
2022-11-16T18:32:48.222Z,5.36
2022-11-16T18:35:16.169Z,5.35
2022-11-16T18:37:44.097Z,5.37
2022-11-16T18:40:12.389Z,5.39
2022-11-16T18:42:42.071Z,5.39
2022-11-16T18:45:11.191Z,5.37
2022-11-16T18:47:39.087Z,5.36
2022-11-16T18:50:08.916Z,5.36
2022-11-16T18:52:40.717Z,5.35
2022-11-16T18:55:09.343Z,5.35
2022-11-16T18:57:38.337Z,5.33
2022-11-16T19:00:07.197Z,5.36
2022-11-16T19:02:36.240Z,5.33
2022-11-16T19:05:04.492Z,5.30
2022-11-16T19:07:34.520Z,5.27
2022-11-16T19:10:02.215Z,5.23
2022-11-16T19:12:31.028Z,5.17
2022-11-16T19:14:58.640Z,5.21
2022-11-16T19:17:30.348Z,5.23
2022-11-16T19:19:59.606Z,5.20
2022-11-16T19:22:27.337Z,5.21
2022-11-16T19:24:55.153Z,5.20
2022-11-16T19:27:25.100Z,5.21
2022-11-16T19:29:52.673Z,5.22
2022-11-16T19:32:20.968Z,5.18
2022-11-16T19:34:48.545Z,5.14
2022-11-16T19:37:19.933Z,5.14
2022-11-16T19:39:48.229Z,5.13
2022-11-16T19:42:15.806Z,5.14
2022-11-16T19:44:43.837Z,5.13
2022-11-16T19:47:13.729Z,5.14
2022-11-16T19:49:41.472Z,5.16
2022-11-16T19:52:09.049Z,5.18
2022-11-16T19:54:38.539Z,5.18
2022-11-16T19:57:06.472Z,5.12
2022-11-16T19:59:34.205Z,5.09
2022-11-16T20:02:01.841Z,5.09
2022-11-16T20:04:30.829Z,5.09
2022-11-16T20:06:58.715Z,5.07
2022-11-16T20:09:29.605Z,5.05
2022-11-16T20:11:59.139Z,5.09
2022-11-16T20:14:26.927Z,5.04
2022-11-16T20:16:54.684Z,5.08
2022-11-16T20:19:22.460Z,5.01
2022-11-16T20:21:50.338Z,4.98
2022-11-16T20:24:18.348Z,4.98
2022-11-16T20:26:47.918Z,4.98
2022-11-16T20:29:18.740Z,4.97
2022-11-16T20:31:47.051Z,4.99
2022-11-16T20:34:16.882Z,4.97
2022-11-16T20:36:46.460Z,4.98
2022-11-16T20:39:17.036Z,4.99
2022-11-16T20:41:45.201Z,5.01
2022-11-16T20:44:17.426Z,4.98
2022-11-16T20:46:45.405Z,5.02
2022-11-16T20:49:13.464Z,4.96
2022-11-16T20:51:41.226Z,5.00
2022-11-16T20:54:08.988Z,4.99
2022-11-16T20:56:36.556Z,4.99
2022-11-16T20:59:04.757Z,4.99
2022-11-16T21:01:34.181Z,4.97
2022-11-16T21:04:05.093Z,4.95
2022-11-16T21:06:33.498Z,4.88
2022-11-16T21:09:01.797Z,4.91
2022-11-16T21:11:31.681Z,4.94
2022-11-16T21:13:59.902Z,4.79
2022-11-16T21:16:28.033Z,4.93
2022-11-16T21:18:57.023Z,4.93
2022-11-16T21:21:25.525Z,4.91
2022-11-16T21:23:53.549Z,4.92
2022-11-16T21:26:22.773Z,4.94
2022-11-16T21:28:50.642Z,4.93
2022-11-16T21:31:20.015Z,4.97
2022-11-16T21:33:48.222Z,4.91
2022-11-16T21:36:18.990Z,4.92
2022-11-16T21:38:47.213Z,4.92
2022-11-16T21:41:16.242Z,4.89
2022-11-16T21:43:44.406Z,4.92
2022-11-16T21:46:13.550Z,4.89
2022-11-16T21:48:42.810Z,4.89
2022-11-16T21:51:12.381Z,4.89
2022-11-16T21:53:42.217Z,4.88
2022-11-16T21:56:14.508Z,4.91
2022-11-16T21:58:42.817Z,4.83
2022-11-16T22:01:12.079Z,4.79
2022-11-16T22:03:39.969Z,4.89
2022-11-16T22:06:11.845Z,4.91
2022-11-16T22:08:41.560Z,4.89
2022-11-16T22:11:10.370Z,4.93
2022-11-16T22:13:39.064Z,4.93
2022-11-16T22:16:08.700Z,4.88
2022-11-16T22:18:37.893Z,4.92
2022-11-16T22:21:06.171Z,4.92
2022-11-16T22:23:34.631Z,4.92
2022-11-16T22:26:05.859Z,4.82
2022-11-16T22:28:35.120Z,4.84
2022-11-16T22:31:03.760Z,4.81
2022-11-16T22:33:32.260Z,4.81
2022-11-16T22:36:00.228Z,4.80
2022-11-16T22:38:27.972Z,4.79
2022-11-16T22:40:56.791Z,4.76
2022-11-16T22:43:28.382Z,4.73
2022-11-16T22:45:59.636Z,4.75
2022-11-16T22:48:31.723Z,4.72
2022-11-16T22:51:06.099Z,4.75
2022-11-16T22:53:35.512Z,4.73
2022-11-16T22:56:05.671Z,4.75
2022-11-16T22:58:35.238Z,4.77
2022-11-16T23:01:03.325Z,4.79
2022-11-16T23:03:31.401Z,4.82
2022-11-16T23:05:59.622Z,4.84
2022-11-16T23:08:27.797Z,4.85
2022-11-16T23:10:59.699Z,4.87
2022-11-16T23:13:27.463Z,4.88
2022-11-16T23:15:56.661Z,4.91
2022-11-16T23:18:24.268Z,4.91
2022-11-16T23:20:51.837Z,4.88
2022-11-16T23:23:20.241Z,4.85
2022-11-16T23:25:47.864Z,4.87
2022-11-16T23:28:17.935Z,4.84
2022-11-16T23:30:45.806Z,4.83
2022-11-16T23:33:14.940Z,4.84
2022-11-16T23:35:42.678Z,4.81
2022-11-16T23:38:10.412Z,4.74
2022-11-16T23:40:39.709Z,4.83
2022-11-16T23:43:10.667Z,4.82
2022-11-16T23:45:38.491Z,4.81
2022-11-16T23:48:07.627Z,4.79
2022-11-16T23:50:39.488Z,4.79
2022-11-16T23:53:08.313Z,4.72
2022-11-16T23:55:38.099Z,4.77
2022-11-16T23:58:06.585Z,4.72
